createdAt,value
2018-05-29T18:41:23.439Z,5.60
2018-05-29T18:43:50.992Z,5.57
2018-05-29T18:46:18.562Z,4.83
2018-05-29T18:48:46.138Z,6.70
2018-05-29T18:51:14.462Z,5.90
2018-05-29T18:53:42.008Z,5.03
2018-05-29T18:56:09.579Z,5.93
2018-05-29T18:58:37.166Z,4.10
2018-05-29T19:01:04.724Z,3.67
2018-05-29T19:03:32.366Z,3.80
2018-05-29T19:05:59.899Z,4.20
2018-05-29T19:08:27.463Z,4.00
2018-05-29T19:10:55.063Z,4.47
2018-05-29T19:13:22.646Z,5.03
2018-05-29T19:15:50.216Z,4.93
2018-05-29T19:18:18.584Z,4.30
2018-05-29T19:20:46.152Z,4.50
2018-05-29T19:23:13.725Z,5.57
2018-05-29T19:25:42.172Z,3.77
2018-05-29T19:28:09.749Z,5.30
2018-05-29T19:30:37.318Z,5.73
2018-05-29T19:33:05.585Z,3.80
2018-05-29T19:35:33.162Z,3.73
2018-05-29T19:38:01.501Z,4.20
2018-05-29T19:40:29.119Z,4.40
2018-05-29T19:42:56.705Z,3.77
2018-05-29T19:45:24.274Z,4.20
2018-05-29T19:47:51.864Z,3.00
2018-05-29T19:50:19.521Z,3.60
2018-05-29T19:52:47.102Z,3.63
2018-05-29T19:55:15.473Z,4.33
2018-05-29T19:57:43.053Z,4.77
2018-05-29T20:00:11.388Z,3.10
2018-05-29T20:02:38.986Z,3.80
2018-05-29T20:05:07.316Z,4.90
2018-05-29T20:07:34.917Z,4.43
2018-05-29T20:10:02.642Z,4.27
2018-05-29T20:12:30.217Z,4.57
2018-05-29T20:14:57.802Z,4.17
2018-05-29T20:17:31.228Z,3.60
2018-05-29T20:19:59.600Z,4.60
2018-05-29T20:22:27.183Z,3.60
2018-05-29T20:24:54.841Z,4.70
2018-05-29T20:27:22.411Z,3.70
2018-05-29T20:29:49.994Z,4.13
2018-05-29T20:32:17.606Z,4.03
2018-05-29T20:34:45.951Z,4.17
2018-05-29T20:37:13.546Z,4.43
2018-05-29T20:39:41.911Z,3.87
2018-05-29T20:42:10.255Z,4.90
2018-05-29T20:44:37.826Z,4.10
2018-05-29T20:47:05.436Z,5.07
2018-05-29T20:49:33.017Z,4.37
2018-05-29T20:52:00.593Z,5.20
2018-05-29T20:54:28.189Z,3.90
2018-05-29T20:56:55.758Z,3.90
2018-05-29T20:59:24.101Z,5.33
2018-05-29T21:01:51.686Z,4.43
2018-05-29T21:04:19.258Z,6.10
2018-05-29T21:06:47.707Z,5.30
2018-05-29T21:09:15.319Z,6.00
2018-05-29T21:11:42.894Z,5.50
2018-05-29T21:14:10.578Z,5.87
2018-05-29T21:16:38.187Z,5.80
2018-05-29T21:19:06.526Z,5.37
2018-05-29T21:21:34.171Z,6.30
2018-05-29T21:24:01.772Z,5.60
2018-05-29T21:26:30.846Z,5.37
2018-05-29T21:28:58.417Z,6.27
2018-05-29T21:31:26.007Z,5.90
2018-05-29T21:33:54.342Z,5.87
2018-05-29T21:36:22.013Z,6.53
2018-05-29T21:38:49.689Z,5.50
2018-05-29T21:41:18.022Z,6.53
2018-05-29T21:43:45.616Z,5.77
2018-05-29T21:46:13.221Z,5.77
2018-05-29T21:48:41.636Z,6.67
2018-05-29T21:51:09.206Z,7.90
2018-05-29T21:53:36.870Z,7.27
2018-05-29T21:56:04.429Z,7.53
2018-05-29T21:58:32.011Z,7.80
2018-05-29T22:00:59.609Z,6.80
2018-05-29T22:03:28.046Z,6.80
2018-05-29T22:05:55.637Z,7.07
2018-05-29T22:08:23.984Z,8.20
2018-05-29T22:10:51.555Z,8.33
2018-05-29T22:13:19.120Z,7.80
2018-05-29T22:15:46.742Z,10.20
2018-05-29T22:18:14.307Z,8.10
2018-05-29T22:20:41.891Z,8.83
2018-05-29T22:23:09.490Z,8.90
2018-05-29T22:25:37.824Z,7.83
2018-05-29T22:28:05.394Z,9.80
2018-05-29T22:30:33.040Z,8.70
2018-05-29T22:33:00.594Z,8.93
2018-05-29T22:35:28.176Z,9.13
2018-05-29T22:37:55.789Z,9.60
2018-05-29T22:40:23.371Z,9.33
2018-05-29T22:42:50.950Z,10.70
2018-05-29T22:45:18.564Z,8.57
2018-05-29T22:47:46.178Z,10.13
2018-05-29T22:50:13.771Z,10.83
2018-05-29T22:52:42.158Z,12.30
2018-05-29T22:55:10.501Z,12.13
2018-05-29T22:57:38.086Z,10.87
2018-05-29T23:00:06.466Z,14.40
2018-05-29T23:02:34.817Z,11.17
2018-05-29T23:05:02.402Z,12.10
2018-05-29T23:07:31.576Z,14.83
2018-05-29T23:09:59.157Z,12.70
2018-05-29T23:12:26.734Z,14.23
2018-05-29T23:14:55.124Z,14.63
2018-05-29T23:17:23.464Z,14.43
2018-05-29T23:19:51.040Z,13.10
2018-05-29T23:22:19.409Z,13.43
2018-05-29T23:24:47.759Z,15.57
2018-05-29T23:27:15.364Z,14.60
2018-05-29T23:29:43.737Z,14.80
2018-05-29T23:32:12.075Z,15.57
2018-05-29T23:34:39.648Z,15.30
2018-05-29T23:37:07.252Z,16.43
2018-05-29T23:39:35.595Z,14.83
2018-05-29T23:42:03.235Z,15.93
2018-05-29T23:44:30.846Z,15.77
2018-05-29T23:46:59.202Z,17.00
2018-05-29T23:49:26.873Z,15.00
2018-05-29T23:51:54.490Z,16.90
2018-05-29T23:54:22.082Z,17.27
2018-05-29T23:56:49.678Z,18.43
2018-05-29T23:59:18.058Z,18.70
